createdAt,value
2024-01-09T00:00:35.268Z,-0.41
2024-01-09T00:03:37.081Z,-0.41
2024-01-09T00:06:38.948Z,-0.32
2024-01-09T00:09:40.697Z,-0.41
2024-01-09T00:12:42.554Z,-0.47
2024-01-09T00:15:44.509Z,-0.50
2024-01-09T00:18:46.382Z,-0.51
2024-01-09T00:21:50.965Z,-0.57
2024-01-09T00:24:52.692Z,-0.60
2024-01-09T00:27:54.474Z,-0.72
2024-01-09T00:30:56.247Z,-0.55
2024-01-09T00:33:58.212Z,-0.55
2024-01-09T00:37:00.034Z,-0.58
2024-01-09T00:40:02.294Z,-0.61
2024-01-09T00:43:04.142Z,-0.65
2024-01-09T00:46:05.960Z,-0.71
2024-01-09T00:49:07.705Z,-0.68
2024-01-09T00:52:09.534Z,-0.73
2024-01-09T00:55:11.942Z,-0.81
2024-01-09T00:58:13.622Z,-0.75
2024-01-09T01:01:15.508Z,-0.80
2024-01-09T01:04:18.520Z,-0.85
2024-01-09T01:07:20.395Z,-1.35
2024-01-09T01:10:22.198Z,-0.95
2024-01-09T01:13:23.972Z,-0.91
2024-01-09T01:16:25.747Z,-0.95
2024-01-09T01:19:27.514Z,-0.93
2024-01-09T01:22:29.295Z,-0.91
2024-01-09T01:25:31.085Z,-0.84
2024-01-09T01:28:32.880Z,-0.90
2024-01-09T01:31:34.643Z,-0.87
2024-01-09T01:34:36.970Z,-0.82
2024-01-09T01:37:38.728Z,-0.76
2024-01-09T01:40:40.519Z,-0.81
2024-01-09T01:43:42.317Z,-0.77
2024-01-09T01:46:45.299Z,-0.72
2024-01-09T01:49:47.145Z,-0.72
2024-01-09T01:52:48.961Z,-0.67
2024-01-09T01:55:50.702Z,-0.65
2024-01-09T01:58:52.773Z,-0.59
2024-01-09T02:01:54.635Z,-0.69
2024-01-09T02:04:56.613Z,-0.62
2024-01-09T02:07:58.819Z,-0.67
2024-01-09T02:11:00.435Z,-0.61
2024-01-09T02:14:02.184Z,-0.59
2024-01-09T02:17:04.230Z,-0.61
2024-01-09T02:20:12.532Z,-0.69
2024-01-09T02:23:14.273Z,-0.66
2024-01-09T02:26:39.047Z,-0.59
2024-01-09T02:29:50.400Z,-0.64
2024-01-09T02:32:53.097Z,-0.61
2024-01-09T02:35:55.010Z,-0.67
2024-01-09T02:38:56.860Z,-0.66
2024-01-09T02:41:58.671Z,-0.69
2024-01-09T02:45:00.438Z,-0.68
2024-01-09T02:48:02.324Z,-0.67
2024-01-09T02:51:04.313Z,-0.72
2024-01-09T02:54:06.069Z,-0.74
2024-01-09T02:57:07.829Z,-0.96
2024-01-09T03:00:10.283Z,-0.79
2024-01-09T03:03:12.231Z,-0.85
2024-01-09T03:06:14.250Z,-0.88
2024-01-09T03:09:17.253Z,-0.90
2024-01-09T03:12:18.958Z,-0.92
2024-01-09T03:15:20.723Z,-1.02
2024-01-09T03:18:22.575Z,-1.05
2024-01-09T03:21:24.485Z,-1.11
2024-01-09T03:24:26.314Z,-1.12
2024-01-09T03:27:27.995Z,-1.20
2024-01-09T03:30:31.016Z,-1.19
2024-01-09T03:33:33.148Z,-1.23
2024-01-09T03:36:35.216Z,-1.26
2024-01-09T03:39:37.353Z,-1.26
2024-01-09T03:42:39.040Z,-1.30
2024-01-09T03:45:41.020Z,-1.34
2024-01-09T03:48:42.805Z,-1.31
2024-01-09T03:51:44.617Z,-1.38
2024-01-09T03:54:46.308Z,-1.39
2024-01-09T03:57:48.048Z,-1.43
2024-01-09T04:00:50.225Z,-1.43
2024-01-09T04:03:52.125Z,-1.49
2024-01-09T04:06:53.785Z,-1.51
2024-01-09T04:09:55.524Z,-1.52
2024-01-09T04:12:57.244Z,-1.56
2024-01-09T04:15:58.976Z,-1.56
2024-01-09T04:19:00.996Z,-1.62
2024-01-09T04:22:03.067Z,-1.64
2024-01-09T04:25:05.228Z,-1.66
2024-01-09T04:28:07.153Z,-1.71
2024-01-09T04:31:08.936Z,-1.72
2024-01-09T04:34:10.756Z,-1.75
2024-01-09T04:37:12.544Z,-1.77
2024-01-09T04:40:14.387Z,-1.80
2024-01-09T04:43:16.092Z,-1.78
2024-01-09T04:46:17.819Z,-1.78
2024-01-09T04:49:19.607Z,-1.73
2024-01-09T04:52:21.307Z,-1.71
2024-01-09T04:55:22.984Z,-1.64
2024-01-09T04:58:24.749Z,-1.59
2024-01-09T05:01:26.762Z,-1.56
2024-01-09T05:04:31.553Z,-1.58
2024-01-09T05:07:33.299Z,-1.62
2024-01-09T05:10:34.996Z,-1.61
2024-01-09T05:13:37.131Z,-1.63
2024-01-09T05:16:39.935Z,-1.60
2024-01-09T05:19:41.934Z,-1.56
2024-01-09T05:27:05.595Z,-1.52
2024-01-09T05:30:09.360Z,-1.50
2024-01-09T05:33:11.544Z,-1.51
2024-01-09T05:36:14.966Z,-1.51
2024-01-09T05:39:16.665Z,-1.49
2024-01-09T05:42:18.312Z,-1.54
2024-01-09T05:45:20.040Z,-1.47
2024-01-09T05:48:21.930Z,-1.46
2024-01-09T05:51:23.771Z,-1.44
2024-01-09T05:54:25.516Z,-1.40
2024-01-09T05:57:27.303Z,-1.35
2024-01-09T06:00:29.015Z,-1.27
2024-01-09T06:03:30.743Z,-1.19
2024-01-09T06:06:32.922Z,-1.15
2024-01-09T06:09:34.762Z,-1.13
2024-01-09T06:12:36.662Z,-1.10
2024-01-09T06:15:38.601Z,-1.03
2024-01-09T06:18:41.225Z,-1.13
2024-01-09T06:21:43.162Z,-1.08
2024-01-09T06:24:44.919Z,-1.06
2024-01-09T06:27:46.661Z,-1.03
2024-01-09T06:30:48.446Z,-1.04
2024-01-09T06:33:51.343Z,-1.01
2024-01-09T06:36:53.543Z,-0.98
2024-01-09T06:39:55.252Z,-0.94
2024-01-09T06:42:57.123Z,-0.98
2024-01-09T06:45:59.163Z,-0.95
2024-01-09T06:49:01.026Z,-0.97
2024-01-09T06:52:04.310Z,-0.84
2024-01-09T06:55:06.421Z,-0.78
2024-01-09T06:58:09.230Z,-0.73
2024-01-09T07:01:14.187Z,-0.77
2024-01-09T07:04:17.156Z,-0.72
2024-01-09T07:07:19.178Z,-0.66
2024-01-09T07:10:22.549Z,-0.61
2024-01-09T07:13:24.816Z,-0.57
2024-01-09T07:16:26.518Z,-0.50
2024-01-09T07:19:28.272Z,-0.50
2024-01-09T07:22:30.035Z,-0.47
2024-01-09T07:25:31.897Z,-0.49
2024-01-09T07:28:33.668Z,-0.50
2024-01-09T07:31:35.394Z,-0.47
2024-01-09T07:34:37.189Z,-0.42
2024-01-09T07:37:39.120Z,-0.76
2024-01-09T07:40:40.866Z,-0.38
2024-01-09T07:43:42.654Z,-0.39
2024-01-09T07:46:44.453Z,-0.33
2024-01-09T07:49:46.286Z,-0.29
2024-01-09T07:52:48.095Z,-0.24
2024-01-09T07:55:49.838Z,-0.21
2024-01-09T07:58:51.509Z,-0.22
2024-01-09T08:01:56.566Z,-0.15
2024-01-09T08:04:59.036Z,-0.21
2024-01-09T08:08:00.840Z,-0.14
2024-01-09T08:11:02.619Z,-0.08
2024-01-09T08:14:04.358Z,-0.03
2024-01-09T08:17:06.482Z,0.06
2024-01-09T08:20:08.437Z,0.18
2024-01-09T08:23:11.231Z,0.29
2024-01-09T08:26:14.306Z,1.11
2024-01-09T08:29:19.138Z,1.45
2024-01-09T08:32:21.027Z,1.22
2024-01-09T08:35:22.879Z,0.79
2024-01-09T08:38:24.685Z,0.68
2024-01-09T08:41:26.610Z,0.74
2024-01-09T08:44:28.453Z,0.67
2024-01-09T08:47:30.271Z,0.59
2024-01-09T08:50:32.140Z,0.68
2024-01-09T08:53:34.227Z,0.64
2024-01-09T08:56:36.526Z,0.67
2024-01-09T08:59:38.405Z,0.70
2024-01-09T09:02:40.192Z,0.70
2024-01-09T09:05:42.332Z,0.81
2024-01-09T09:08:45.275Z,0.87
2024-01-09T09:11:47.048Z,0.93
2024-01-09T09:14:49.042Z,1.07
2024-01-09T09:17:50.865Z,1.17
2024-01-09T09:20:52.698Z,1.24
2024-01-09T09:23:54.607Z,1.37
2024-01-09T09:26:56.493Z,1.44
2024-01-09T09:29:58.284Z,1.34
2024-01-09T09:33:00.281Z,1.14
2024-01-09T09:36:08.582Z,1.27
2024-01-09T09:39:11.806Z,1.32
2024-01-09T09:42:13.636Z,1.24
2024-01-09T09:45:15.680Z,1.34
2024-01-09T09:48:21.233Z,1.37
2024-01-09T09:51:27.225Z,1.44
2024-01-09T09:54:32.558Z,1.45
2024-01-09T09:57:34.300Z,1.45
2024-01-09T10:00:36.195Z,1.47
2024-01-09T10:03:45.122Z,1.27
2024-01-09T10:06:47.816Z,1.31
2024-01-09T10:09:54.758Z,1.38
2024-01-09T10:12:58.639Z,1.36
2024-01-09T10:16:02.543Z,1.28
2024-01-09T10:19:04.512Z,1.38
2024-01-09T10:22:06.539Z,1.54
2024-01-09T10:25:12.719Z,1.72
2024-01-09T10:28:18.222Z,1.83
2024-01-09T10:31:20.445Z,1.94
2024-01-09T10:34:22.459Z,2.09
2024-01-09T10:37:25.237Z,2.18
2024-01-09T10:40:27.388Z,2.33
2024-01-09T10:43:30.330Z,2.50
2024-01-09T10:46:34.717Z,2.65
2024-01-09T10:49:40.556Z,2.62
2024-01-09T10:52:43.687Z,2.40
2024-01-09T10:55:46.193Z,2.18
2024-01-09T10:58:49.508Z,2.47
2024-01-09T11:01:52.352Z,2.50
2024-01-09T11:04:54.097Z,2.56
2024-01-09T11:07:56.632Z,2.44
2024-01-09T11:10:58.888Z,2.39
2024-01-09T11:14:07.712Z,2.46
2024-01-09T11:17:10.757Z,2.48
2024-01-09T11:20:13.286Z,2.55
2024-01-09T11:23:15.085Z,2.58
2024-01-09T11:26:16.934Z,2.47
2024-01-09T11:29:51.678Z,2.60
2024-01-09T11:32:54.134Z,2.69
2024-01-09T11:35:56.356Z,2.62
2024-01-09T11:38:58.615Z,2.63
2024-01-09T11:42:00.486Z,2.62
2024-01-09T11:45:10.909Z,2.63
2024-01-09T11:48:15.211Z,2.58
2024-01-09T11:51:17.950Z,2.59
2024-01-09T11:54:20.716Z,2.57
2024-01-09T11:57:22.891Z,2.48
2024-01-09T12:00:24.795Z,2.52
2024-01-09T12:03:26.621Z,2.54
2024-01-09T12:06:30.406Z,2.57
2024-01-09T12:09:32.282Z,2.76
2024-01-09T12:12:34.106Z,2.73
2024-01-09T12:15:35.777Z,2.68
2024-01-09T12:18:52.153Z,2.73
2024-01-09T12:21:54.072Z,2.78
2024-01-09T12:24:57.027Z,2.86
2024-01-09T12:28:00.961Z,2.86
2024-01-09T12:31:03.346Z,2.75
2024-01-09T12:34:06.486Z,2.86
2024-01-09T12:37:10.243Z,2.82
2024-01-09T12:40:17.183Z,2.88
2024-01-09T12:43:20.495Z,2.90
2024-01-09T12:46:22.984Z,3.00
2024-01-09T12:49:24.786Z,3.00
2024-01-09T12:52:26.692Z,2.97
2024-01-09T12:55:30.028Z,2.98
2024-01-09T12:58:33.195Z,2.98
2024-01-09T13:01:34.971Z,2.92
2024-01-09T13:04:36.900Z,2.89
2024-01-09T13:07:38.619Z,2.82
2024-01-09T13:10:41.734Z,2.73
2024-01-09T13:13:43.907Z,2.60
2024-01-09T13:16:46.415Z,2.60
2024-01-09T13:19:51.288Z,2.65
2024-01-09T13:26:02.504Z,2.70
2024-01-09T13:30:43.519Z,2.73
2024-01-09T13:32:29.035Z,2.70
2024-01-09T13:35:33.525Z,2.61
2024-01-09T13:38:38.760Z,2.59
2024-01-09T13:41:40.497Z,2.51
2024-01-09T13:44:42.957Z,2.43
2024-01-09T13:47:44.761Z,2.41
2024-01-09T13:51:49.147Z,2.44
2024-01-09T13:54:09.337Z,2.48
2024-01-09T13:57:13.342Z,2.53
2024-01-09T14:00:17.657Z,2.55
2024-01-09T14:03:19.842Z,2.56
2024-01-09T14:06:21.795Z,2.59
2024-01-09T14:09:23.879Z,2.55
2024-01-09T14:12:26.131Z,2.51
2024-01-09T14:15:28.195Z,2.51
2024-01-09T14:18:30.334Z,2.49
2024-01-09T14:21:35.193Z,2.45
2024-01-09T14:24:37.927Z,2.42
2024-01-09T14:27:39.659Z,2.36
2024-01-09T14:30:41.386Z,2.27
2024-01-09T14:33:43.500Z,2.19
2024-01-09T14:36:45.242Z,2.13
2024-01-09T14:39:47.501Z,2.07
2024-01-09T14:42:49.602Z,1.97
2024-01-09T14:45:51.316Z,1.88
2024-01-09T14:48:53.242Z,1.79
2024-01-09T14:51:55.200Z,1.68
2024-01-09T14:54:57.003Z,1.54
2024-01-09T14:57:58.841Z,1.37
2024-01-09T15:01:00.937Z,1.28
2024-01-09T15:04:02.870Z,1.13
2024-01-09T15:07:04.649Z,1.03
2024-01-09T15:10:06.805Z,0.94
2024-01-09T15:13:08.616Z,0.74
2024-01-09T15:16:10.677Z,0.63
2024-01-09T15:19:12.738Z,0.53
2024-01-09T15:22:17.269Z,0.37
2024-01-09T15:25:19.099Z,0.28
2024-01-09T15:28:21.620Z,0.17
2024-01-09T15:31:23.711Z,0.04
2024-01-09T15:34:25.835Z,-0.10
2024-01-09T15:37:27.973Z,-0.19
2024-01-09T15:40:29.739Z,-0.39
2024-01-09T15:43:33.726Z,-0.58
2024-01-09T15:46:35.745Z,-0.61
2024-01-09T15:49:40.616Z,-0.69
2024-01-09T15:52:42.584Z,-0.73
2024-01-09T15:55:44.479Z,-0.74
2024-01-09T15:58:46.301Z,-0.79
2024-01-09T16:01:48.024Z,-0.87
2024-01-09T16:04:50.157Z,-0.91
2024-01-09T16:07:54.990Z,-0.96
2024-01-09T16:10:56.915Z,-1.01
2024-01-09T16:13:58.762Z,-1.05
2024-01-09T16:17:00.554Z,-1.08
2024-01-09T16:20:02.965Z,-1.14
2024-01-09T16:23:05.125Z,-1.19
2024-01-09T16:26:09.610Z,-1.40
2024-01-09T16:29:12.065Z,-1.48
2024-01-09T16:32:14.055Z,-1.55
2024-01-09T16:35:16.233Z,-1.58
2024-01-09T16:38:18.007Z,-1.60
2024-01-09T16:41:20.229Z,-1.62
2024-01-09T16:44:23.365Z,-1.69
2024-01-09T16:47:25.193Z,-1.73
2024-01-09T16:50:27.091Z,-1.67
2024-01-09T16:53:29.275Z,-1.63
2024-01-09T16:56:31.418Z,-1.61
2024-01-09T16:59:33.151Z,-1.56
2024-01-09T17:02:35.265Z,-1.56
2024-01-09T17:05:38.203Z,-1.64
2024-01-09T17:08:40.312Z,-1.65
2024-01-09T17:11:42.597Z,-1.65
2024-01-09T17:14:47.318Z,-1.64
2024-01-09T17:17:49.515Z,-1.68
2024-01-09T17:20:51.316Z,-1.73
2024-01-09T17:23:53.136Z,-1.66
2024-01-09T17:26:54.985Z,-1.75
2024-01-09T17:29:57.055Z,-1.64
2024-01-09T17:32:59.147Z,-1.67
2024-01-09T17:36:01.206Z,-1.62
2024-01-09T17:39:03.297Z,-1.71
2024-01-09T17:42:05.349Z,-1.83
2024-01-09T17:45:09.312Z,-1.83
2024-01-09T17:48:11.968Z,-1.86
2024-01-09T17:51:14.142Z,-2.00
2024-01-09T17:54:15.917Z,-1.99
2024-01-09T17:57:17.888Z,-2.01
2024-01-09T18:00:20.131Z,-2.11
2024-01-09T18:03:22.088Z,-2.15
2024-01-09T18:06:24.005Z,-2.18
2024-01-09T18:09:30.549Z,-2.29
2024-01-09T18:12:34.407Z,-2.32
2024-01-09T18:15:36.428Z,-2.33
2024-01-09T18:18:38.614Z,-2.35
2024-01-09T18:21:43.843Z,-2.39
2024-01-09T18:24:45.752Z,-2.45
2024-01-09T18:27:47.812Z,-2.54
2024-01-09T18:30:49.536Z,-2.56
2024-01-09T18:33:52.728Z,-2.73
2024-01-09T18:36:54.793Z,-2.70
2024-01-09T18:39:58.718Z,-2.73
2024-01-09T18:43:00.725Z,-2.75
2024-01-09T18:46:03.134Z,-2.78
2024-01-09T18:49:05.212Z,-2.83
2024-01-09T18:52:07.326Z,-2.87
2024-01-09T18:55:09.576Z,-2.92
2024-01-09T18:58:11.393Z,-2.95
2024-01-09T19:01:13.252Z,-3.00
2024-01-09T19:04:16.034Z,-3.07
2024-01-09T19:07:17.984Z,-3.14
2024-01-09T19:10:19.865Z,-3.16
2024-01-09T19:13:21.743Z,-3.16
2024-01-09T19:16:23.815Z,-3.24
2024-01-09T19:19:26.113Z,-3.20
2024-01-09T19:22:28.213Z,-3.22
2024-01-09T19:25:30.469Z,-3.28
2024-01-09T19:28:32.415Z,-3.30
2024-01-09T19:31:34.902Z,-3.33
2024-01-09T19:34:41.536Z,-3.43
2024-01-09T19:37:44.880Z,-3.46
2024-01-09T19:40:47.316Z,-3.51
2024-01-09T19:43:49.300Z,-3.61
2024-01-09T19:46:51.301Z,-3.71
2024-01-09T19:49:53.447Z,-3.78
2024-01-09T19:52:56.930Z,-3.74
2024-01-09T19:55:59.355Z,-3.72
2024-01-09T19:59:01.572Z,-3.73
2024-01-09T20:02:03.826Z,-4.32
2024-01-09T20:05:06.674Z,-3.92
2024-01-09T20:08:09.250Z,-3.99
2024-01-09T20:11:28.197Z,-4.03
2024-01-09T20:14:30.316Z,-3.98
2024-01-09T20:17:32.494Z,-3.98
2024-01-09T20:20:34.718Z,-3.96
2024-01-09T20:23:36.863Z,-3.96
2024-01-09T20:26:39.326Z,-3.97
2024-01-09T20:29:43.205Z,-3.97
2024-01-09T20:32:45.168Z,-3.99
2024-01-09T20:35:47.974Z,-3.99
2024-01-09T20:38:52.800Z,-3.99
2024-01-09T20:41:54.867Z,-4.01
2024-01-09T20:44:57.068Z,-4.01
2024-01-09T20:47:59.675Z,-4.04
2024-01-09T20:51:05.051Z,-4.05
2024-01-09T20:54:09.608Z,-4.06
2024-01-09T20:57:11.561Z,-4.08
2024-01-09T21:00:13.985Z,-4.13
2024-01-09T21:03:16.501Z,-4.19
2024-01-09T21:06:18.371Z,-4.20
2024-01-09T21:09:20.346Z,-4.28
2024-01-09T21:12:23.243Z,-4.26
2024-01-09T21:15:25.257Z,-4.32
2024-01-09T21:18:27.288Z,-4.33
2024-01-09T21:21:29.306Z,-4.40
2024-01-09T21:24:31.109Z,-4.45
2024-01-09T21:27:35.259Z,-4.45
2024-01-09T21:30:38.004Z,-4.48
2024-01-09T21:33:40.021Z,-4.51
2024-01-09T21:36:42.170Z,-4.57
2024-01-09T21:39:44.457Z,-4.61
2024-01-09T21:42:46.364Z,-4.62
2024-01-09T21:45:48.200Z,-4.63
2024-01-09T21:48:50.875Z,-4.64
2024-01-09T21:51:52.816Z,-4.68
2024-01-09T21:54:54.526Z,-4.68
2024-01-09T21:57:56.410Z,-4.71
2024-01-09T22:00:58.607Z,-4.74
2024-01-09T22:04:00.547Z,-4.75
2024-01-09T22:07:09.086Z,-4.80
2024-01-09T22:10:12.337Z,-4.83
2024-01-09T22:17:23.467Z,-4.88
2024-01-09T22:20:25.323Z,-4.95
2024-01-09T22:23:27.237Z,-4.99
2024-01-09T22:26:28.970Z,-4.99
2024-01-09T22:29:30.712Z,-5.03
2024-01-09T22:32:32.751Z,-5.52
2024-01-09T22:35:34.698Z,-5.07
2024-01-09T22:38:36.630Z,-5.09
2024-01-09T22:41:38.437Z,-5.09
2024-01-09T22:44:40.207Z,-5.17
2024-01-09T22:47:41.986Z,-5.11
2024-01-09T22:50:46.002Z,-5.14
2024-01-09T22:53:47.899Z,-5.18
2024-01-09T22:56:49.641Z,-5.20
2024-01-09T22:59:51.658Z,-5.22
2024-01-09T23:02:57.414Z,-5.25
2024-01-09T23:05:59.476Z,-5.25
2024-01-09T23:09:01.154Z,-5.29
2024-01-09T23:12:02.942Z,-5.29
2024-01-09T23:15:05.094Z,-5.37
2024-01-09T23:18:07.375Z,-5.39
2024-01-09T23:21:09.244Z,-5.41
2024-01-09T23:24:11.012Z,-5.40
2024-01-09T23:27:12.737Z,-5.44
2024-01-09T23:30:14.754Z,-5.47
2024-01-09T23:33:16.571Z,-5.50
2024-01-09T23:36:18.449Z,-5.53
2024-01-09T23:39:20.112Z,-5.58
2024-01-09T23:42:21.809Z,-5.61
2024-01-09T23:45:23.551Z,-5.64
2024-01-09T23:48:25.697Z,-5.64
2024-01-09T23:51:27.721Z,-5.65
2024-01-09T23:54:29.532Z,-5.67
2024-01-09T23:57:31.241Z,-5.68
